Time;durP1;ratioP1;P1;durP2;ratioP2;P2;SDS_P1;SDS_P2;PMS_P1;PMS_P2;Temp;Humidity;BMP_temperature;BMP_pressure;BME280_temperature;BME280_humidity;BME280_pressure;Samples;Min_cycle;Max_cycle;Signal;HPM_P1;HPM_P2
2022/12/04 00:01:25;;;;;;;12.20;4.97;;;;;;;3.00;73.69;102325.81;4945987;28;20043;-90
2022/12/04 00:03:56;;;;;;;9.82;5.10;;;;;;;3.14;73.89;102359.72;4962877;28;20027;-89
2022/12/04 00:06:22;;;;;;;8.65;4.63;;;;;;;3.05;74.42;102361.00;4950134;28;20043;-89
2022/12/04 00:08:52;;;;;;;12.98;6.32;;;;;;;3.00;74.99;102363.03;4944135;28;20416;-91
2022/12/04 00:11:26;;;;;;;11.55;6.15;;;;;;;3.00;74.45;102344.41;4946484;28;20137;-90
2022/12/04 00:13:57;;;;;;;11.82;6.07;;;;;;;3.27;74.03;102366.19;4947734;28;20062;-91
2022/12/04 00:16:28;;;;;;;12.43;6.20;;;;;;;3.26;73.76;102355.63;4944448;28;20043;-90
2022/12/04 00:18:55;;;;;;;13.23;6.68;;;;;;;3.30;73.58;102336.81;4967132;28;20026;-93
2022/12/04 00:21:22;;;;;;;17.33;8.88;;;;;;;3.26;73.34;102315.75;4953280;28;20063;-90
2022/12/04 00:23:51;;;;;;;13.50;6.50;;;;;;;3.49;73.52;102357.19;4933641;28;20097;-91
2022/12/04 00:26:25;;;;;;;12.90;6.40;;;;;;;3.50;73.52;102373.06;4948136;28;20086;-91
2022/12/04 00:29:08;;;;;;;12.85;6.20;;;;;;;3.38;73.82;102357.72;4945549;28;20061;-91
2022/12/04 00:31:35;;;;;;;12.50;6.55;;;;;;;3.31;74.26;102362.44;4926013;28;20129;-89
2022/12/04 00:34:10;;;;;;;13.23;6.60;;;;;;;3.15;74.16;102343.69;4941404;28;20581;-89
2022/12/04 00:36:36;;;;;;;14.35;6.57;;;;;;;3.13;75.18;102372.13;4964103;28;20073;-90
2022/12/04 00:39:02;;;;;;;12.90;6.63;;;;;;;3.08;75.13;102363.50;4952144;28;20035;-90
2022/12/04 00:41:38;;;;;;;13.80;6.85;;;;;;;3.02;76.09;102361.16;4948254;28;20333;-89
2022/12/04 00:44:27;;;;;;;15.70;7.45;;;;;;;2.98;76.35;102358.72;4973346;28;20047;-89
2022/12/04 00:46:52;;;;;;;14.82;6.93;;;;;;;3.06;76.27;102361.88;4929340;29;20043;-89
2022/12/04 00:49:26;;;;;;;14.73;7.20;;;;;;;2.96;76.17;102337.50;4960728;28;20079;-90
2022/12/04 00:52:17;;;;;;;16.15;7.05;;;;;;;3.24;76.09;102386.75;4973573;28;20041;-91
2022/12/04 00:54:46;;;;;;;13.48;6.45;;;;;;;3.02;76.05;102347.00;4928321;28;20042;-88
2022/12/04 00:57:22;;;;;;;13.20;6.75;;;;;;;3.06;75.72;102330.81;4976951;28;20030;-91
2022/12/04 01:00:08;;;;;;;11.35;6.35;;;;;;;3.21;75.43;102353.19;4967671;28;20035;-92
2022/12/04 01:02:36;;;;;;;14.93;7.40;;;;;;;3.19;75.49;102351.53;4954924;28;20102;-91
2022/12/04 01:05:29;;;;;;;14.27;7.55;;;;;;;3.39;75.60;102380.69;4958518;28;20590;-91
2022/12/04 01:07:56;;;;;;;14.95;7.25;;;;;;;3.24;75.17;102352.19;4961244;28;20122;-90
2022/12/04 01:10:42;;;;;;;16.35;7.60;;;;;;;3.45;75.49;102380.41;4935701;28;20058;-90
2022/12/04 01:13:08;;;;;;;18.50;7.15;;;;;;;3.23;75.39;102332.72;4954598;29;20062;-89
2022/12/04 01:15:43;;;;;;;14.65;7.18;;;;;;;3.18;75.09;102332.06;4957678;28;20157;-91
2022/12/04 01:18:17;;;;;;;14.75;7.20;;;;;;;3.29;74.43;102319.13;4948406;28;20052;-89
2022/12/04 01:21:00;;;;;;;14.73;7.22;;;;;;;3.36;74.58;102344.47;4950011;28;20101;-88
2022/12/04 01:23:59;;;;;;;14.32;7.07;;;;;;;3.55;74.07;102360.41;4959077;28;20055;-91
2022/12/04 01:26:37;;;;;;;13.77;7.03;;;;;;;3.47;74.37;102343.97;4974868;28;20046;-89
2022/12/04 01:29:12;;;;;;;12.98;6.57;;;;;;;3.57;73.87;102353.22;4967517;28;20027;-89
2022/12/04 01:31:52;;;;;;;11.98;5.78;;;;;;;3.66;73.91;102353.72;4983630;28;20106;-89
2022/12/04 01:34:29;;;;;;;14.15;6.55;;;;;;;3.48;74.50;102356.31;4953287;28;20114;-90
2022/12/04 01:37:00;;;;;;;11.75;6.57;;;;;;;3.51;74.51;102337.56;4978396;28;20069;-90
2022/12/04 01:39:31;;;;;;;12.27;6.30;;;;;;;3.58;74.60;102364.72;4942704;28;20046;-89
2022/12/04 01:42:48;;;;;;;13.52;6.20;;;;;;;3.65;74.14;102362.63;4967034;28;20070;-90
2022/12/04 01:45:54;;;;;;;12.82;6.60;;;;;;;3.63;74.49;102384.00;4976678;28;20043;-89
2022/12/04 01:48:45;;;;;;;14.32;7.00;;;;;;;3.73;74.38;102368.44;4973675;28;20046;-88
2022/12/04 01:51:23;;;;;;;15.20;6.90;;;;;;;3.59;74.06;102340.72;4957570;28;20047;-89
2022/12/04 01:54:02;;;;;;;15.35;7.20;;;;;;;3.53;73.66;102319.72;4971593;28;20042;-88
2022/12/04 01:57:02;;;;;;;16.27;7.28;;;;;;;3.69;73.73;102340.25;4962062;28;20308;-88
2022/12/04 01:59:41;;;;;;;14.48;6.50;;;;;;;3.47;73.77;102304.09;4944462;29;20047;-87
2022/12/04 02:02:24;;;;;;;14.07;7.60;;;;;;;3.49;74.01;102328.81;4959238;28;20133;-90
2022/12/04 02:08:45;;;;;;;17.13;7.10;;;;;;;3.59;73.79;102318.59;4892131;29;20060;-90
2022/12/04 02:11:34;;;;;;;13.23;6.70;;;;;;;3.83;73.49;102321.81;4918601;29;20139;-90
2022/12/04 02:14:47;;;;;;;14.02;6.57;;;;;;;3.88;73.79;102357.03;4924369;29;20040;-90
2022/12/04 02:17:24;;;;;;;13.57;6.35;;;;;;;3.72;74.25;102350.75;4939978;29;20062;-88
2022/12/04 02:19:59;;;;;;;13.73;6.20;;;;;;;3.79;74.01;102330.88;4908963;29;20060;-91
2022/12/04 02:23:16;;;;;;;12.40;5.88;;;;;;;3.76;74.24;102315.94;4925165;29;20170;-89
2022/12/04 02:26:04;;;;;;;11.90;5.35;;;;;;;3.98;74.45;102355.66;4944634;28;20042;-89
2022/12/04 02:28:44;;;;;;;11.43;5.30;;;;;;;4.10;74.46;102350.66;4964901;28;20047;-90
2022/12/04 02:31:19;;;;;;;12.27;5.38;;;;;;;4.18;74.33;102359.09;4982082;28;20050;-92
2022/12/04 02:34:18;;;;;;;12.35;6.72;;;;;;;4.11;74.11;102336.41;4941943;29;20138;-90
2022/12/04 02:37:02;;;;;;;12.38;6.22;;;;;;;4.11;73.74;102325.75;4949969;29;20105;-89
2022/12/04 02:39:41;;;;;;;12.85;5.97;;;;;;;4.14;73.41;102346.88;4951640;29;20123;-90
2022/12/04 02:42:19;;;;;;;11.23;5.65;;;;;;;4.16;73.27;102342.34;4943566;29;20050;-89
2022/12/04 02:45:05;;;;;;;12.90;6.10;;;;;;;4.32;73.14;102356.59;4921604;29;20063;-89
2022/12/04 02:47:37;;;;;;;14.90;7.05;;;;;;;4.44;73.23;102360.41;4938329;29;20047;-89
2022/12/04 02:50:16;;;;;;;13.75;6.63;;;;;;;4.28;73.38;102363.00;4892607;29;20044;-91
2022/12/04 02:53:06;;;;;;;15.13;5.72;;;;;;;4.07;74.44;102348.13;4885870;29;20403;-90
2022/12/04 02:56:08;;;;;;;13.43;5.43;;;;;;;4.06;74.25;102328.66;4932547;29;20063;-90
2022/12/04 02:59:04;;;;;;;11.48;5.18;;;;;;;4.29;74.79;102359.41;4937149;29;20059;-90
2022/12/04 03:01:39;;;;;;;9.70;4.88;;;;;;;4.15;74.81;102340.63;4919019;29;20242;-89
2022/12/04 03:04:11;;;;;;;10.85;5.35;;;;;;;4.21;75.13;102361.59;4946334;28;20070;-91
2022/12/04 03:06:38;;;;;;;13.18;5.70;;;;;;;4.08;74.99;102318.78;4962758;28;20054;-90
2022/12/04 03:09:20;;;;;;;12.13;5.10;;;;;;;4.24;75.19;102334.84;4941336;28;20042;-90
2022/12/04 03:11:54;;;;;;;10.15;4.93;;;;;;;4.04;76.32;102341.16;4951534;28;20073;-88
2022/12/04 03:14:30;;;;;;;10.15;4.88;;;;;;;4.28;76.43;102368.31;4950610;28;20043;-90
2022/12/04 03:17:23;;;;;;;9.68;5.22;;;;;;;4.20;76.45;102347.44;4957945;28;20539;-90
2022/12/04 03:19:53;;;;;;;10.50;5.00;;;;;;;4.22;77.30;102366.00;4961765;28;20117;-90
2022/12/04 03:22:22;;;;;;;8.93;4.55;;;;;;;4.21;77.79;102366.91;4958599;28;20070;-90
2022/12/04 03:24:53;;;;;;;11.45;5.13;;;;;;;4.18;78.13;102348.44;4972278;28;20543;-90
2022/12/04 03:27:43;;;;;;;11.55;5.55;;;;;;;4.42;77.48;102375.63;4944973;28;20051;-89
2022/12/04 03:30:26;;;;;;;8.60;4.65;;;;;;;4.16;77.65;102335.22;4974438;28;20039;-91
2022/12/04 03:33:01;;;;;;;10.65;4.95;;;;;;;4.47;77.73;102370.06;4958615;28;20043;-92
2022/12/04 03:35:40;;;;;;;9.18;4.93;;;;;;;4.48;77.14;102371.78;4954614;28;20161;-91
2022/12/04 03:38:26;;;;;;;9.70;5.15;;;;;;;4.33;76.98;102326.38;4972446;28;20047;-91
2022/12/04 03:41:22;;;;;;;9.70;4.72;;;;;;;4.62;76.32;102371.94;4931262;28;20097;-90
2022/12/04 03:43:56;;;;;;;10.25;5.22;;;;;;;4.21;77.14;102327.00;4977649;28;20119;-88
2022/12/04 03:46:45;;;;;;;11.43;5.65;;;;;;;4.61;76.94;102367.53;4956807;28;20103;-90
2022/12/04 03:49:26;;;;;;;10.70;5.53;;;;;;;4.47;76.42;102317.63;4942608;28;20035;-90
2022/12/04 03:52:23;;;;;;;8.43;4.55;;;;;;;4.59;76.37;102351.66;4948194;28;20043;-90
2022/12/04 03:54:58;;;;;;;9.13;4.88;;;;;;;4.63;76.19;102352.31;4937156;28;20549;-89
2022/12/04 03:57:32;;;;;;;9.27;4.78;;;;;;;4.60;76.31;102361.34;4944963;28;20039;-90
2022/12/04 04:00:13;;;;;;;10.20;5.20;;;;;;;4.20;76.56;102320.81;4943584;28;20137;-90
2022/12/04 04:02:53;;;;;;;11.57;4.97;;;;;;;4.05;77.51;102326.94;4957874;28;20050;-91
2022/12/04 04:05:21;;;;;;;11.50;5.00;;;;;;;4.16;77.41;102356.50;4968328;28;20043;-91
2022/12/04 04:07:54;;;;;;;10.13;5.07;;;;;;;4.08;77.46;102323.25;4964322;28;20050;-89
2022/12/04 04:10:24;;;;;;;10.50;5.05;;;;;;;4.36;77.09;102352.84;4987441;28;20057;-89
2022/12/04 04:24:34;;;;;;;9.38;5.05;;;;;;;4.38;76.93;102348.28;4905897;29;20498;-91
2022/12/04 04:27:09;;;;;;;9.07;4.90;;;;;;;4.48;76.74;102371.78;4899122;29;20048;-91
2022/12/04 04:29:57;;;;;;;11.63;5.05;;;;;;;4.35;77.28;102377.72;4955676;28;20057;-89
2022/12/04 04:32:35;;;;;;;10.80;5.10;;;;;;;4.34;77.57;102383.16;4987515;28;20046;-89
2022/12/04 04:35:24;;;;;;;10.07;5.30;;;;;;;4.37;77.51;102380.31;4991456;28;20035;-88
2022/12/04 04:38:01;;;;;;;9.48;5.32;;;;;;;4.13;78.01;102366.47;4962897;28;20081;-90
2022/12/04 04:40:36;;;;;;;9.32;5.47;;;;;;;4.09;77.51;102362.22;4983395;28;20050;-91
2022/12/04 04:43:08;;;;;;;10.63;5.65;;;;;;;4.37;77.69;102393.63;4961503;28;20050;-89
2022/12/04 04:45:44;;;;;;;11.00;5.65;;;;;;;4.44;77.45;102398.56;4942779;28;20496;-90
2022/12/04 04:48:41;;;;;;;10.57;5.57;;;;;;;4.20;77.42;102350.09;4966316;28;20042;-88
2022/12/04 04:51:09;;;;;;;9.05;5.15;;;;;;;4.30;77.35;102373.59;4964321;28;20526;-89
2022/12/04 04:53:56;;;;;;;;;;;;;;;4.43;77.94;102402.19;4965687;28;20110;-90
2022/12/04 04:56:22;;;;;;;9.73;4.75;;;;;;;4.13;78.18;102375.31;4966288;28;19937;-91
2022/12/04 04:58:49;;;;;;;10.15;5.22;;;;;;;4.29;77.52;102390.53;4955957;28;20101;-89
2022/12/04 05:01:17;;;;;;;9.98;5.25;;;;;;;4.38;77.52;102398.03;4987364;28;20065;-89
2022/12/04 05:03:43;;;;;;;9.52;5.28;;;;;;;4.36;77.56;102394.59;4957518;28;20035;-90
2022/12/04 05:06:10;;;;;;;12.07;5.35;;;;;;;4.39;77.54;102371.31;4973963;28;20052;-90
2022/12/04 05:08:36;;;;;;;11.57;5.82;;;;;;;4.35;78.03;102398.19;4964212;28;20085;-89
2022/12/04 05:11:06;;;;;;;10.27;5.68;;;;;;;4.30;78.31;102373.59;4988744;28;20148;-89
2022/12/04 05:13:36;;;;;;;13.90;6.97;;;;;;;4.22;77.88;102352.69;4982871;28;20042;-89
2022/12/04 05:16:05;;;;;;;12.05;6.20;;;;;;;4.34;77.03;102370.69;4953169;28;20119;-89
2022/12/04 05:18:31;;;;;;;15.40;6.53;;;;;;;4.29;77.20;102364.75;4964032;28;20069;-91
2022/12/04 05:20:57;;;;;;;13.70;6.63;;;;;;;4.12;77.83;102356.75;4969369;28;20093;-90
2022/12/04 05:23:26;;;;;;;13.02;6.93;;;;;;;4.29;77.50;102372.72;4963337;28;20050;-88
2022/12/04 05:25:58;;;;;;;12.90;6.63;;;;;;;4.14;77.83;102362.84;4990264;28;20035;-89
2022/12/04 05:28:27;;;;;;;15.15;7.05;;;;;;;4.19;78.61;102379.44;4970844;28;20042;-89
2022/12/04 05:31:01;;;;;;;13.38;6.93;;;;;;;4.01;78.23;102352.81;4989086;28;20050;-91
2022/12/04 05:33:30;;;;;;;14.85;7.57;;;;;;;4.33;78.29;102390.28;4962932;28;20057;-89
2022/12/04 05:36:01;;;;;;;15.73;7.28;;;;;;;4.30;78.43;102379.78;4975985;28;20121;-89
2022/12/04 05:38:27;;;;;;;13.10;7.13;;;;;;;4.31;78.35;102368.19;4987897;28;20112;-88
2022/12/04 05:40:55;;;;;;;12.80;6.82;;;;;;;4.34;78.50;102385.81;4963763;28;20051;-90
2022/12/04 05:43:21;;;;;;;12.88;6.55;;;;;;;4.34;78.50;102405.31;4966870;28;20062;-90
2022/12/04 05:45:47;;;;;;;13.55;6.78;;;;;;;4.27;78.80;102384.41;4959915;28;20484;-88
2022/12/04 05:48:13;;;;;;;13.32;6.43;;;;;;;4.28;78.56;102370.13;4966070;28;20070;-88
2022/12/04 05:50:38;;;;;;;14.23;7.80;;;;;;;4.38;78.79;102420.19;4976304;28;20542;-88
2022/12/04 05:53:04;;;;;;;19.42;8.07;;;;;;;4.40;79.07;102409.44;4991515;28;20063;-88
2022/12/04 05:55:30;;;;;;;16.05;8.80;;;;;;;4.33;79.00;102395.59;4965157;28;20063;-91
2022/12/04 05:57:56;;;;;;;17.63;9.77;;;;;;;4.23;79.51;102395.19;4983285;28;20047;-88
2022/12/04 06:00:24;;;;;;;14.73;8.18;;;;;;;4.37;78.96;102391.81;4978925;28;20100;-89
2022/12/04 06:02:50;;;;;;;19.67;8.35;;;;;;;4.47;78.94;102394.03;4965960;28;20448;-88
2022/12/04 06:05:16;;;;;;;15.15;7.72;;;;;;;4.65;78.87;102427.69;4977237;28;20035;-89
2022/12/04 06:07:42;;;;;;;14.70;7.80;;;;;;;4.71;78.59;102411.41;4944297;28;20492;-90
2022/12/04 06:10:08;;;;;;;11.68;6.78;;;;;;;4.31;79.21;102376.19;4949575;28;20065;-89
2022/12/04 06:12:33;;;;;;;13.57;6.57;;;;;;;4.60;78.89;102422.63;4964496;28;20046;-87
2022/12/04 06:14:59;;;;;;;12.95;6.90;;;;;;;4.56;78.82;102402.41;4964335;28;20039;-87
2022/12/04 06:17:26;;;;;;;11.23;6.55;;;;;;;4.61;79.08;102399.50;4944230;29;20047;-92
2022/12/04 06:19:52;;;;;;;10.88;5.78;;;;;;;4.62;79.12;102411.88;4971817;28;20058;-90
2022/12/04 06:22:19;;;;;;;10.55;6.00;;;;;;;4.54;78.60;102392.75;4956218;28;20047;-89
2022/12/04 06:24:45;;;;;;;10.82;5.90;;;;;;;4.50;79.00;102397.41;4958427;28;20051;-92
2022/12/04 06:27:13;;;;;;;10.02;5.82;;;;;;;4.93;78.62;102442.25;4963829;28;20355;-90
2022/12/04 06:29:40;;;;;;;12.00;6.43;;;;;;;4.75;78.42;102418.31;4981339;28;20046;-91
2022/12/04 06:32:06;;;;;;;12.55;5.88;;;;;;;4.79;78.43;102424.31;4945946;28;20050;-92
2022/12/04 06:34:34;;;;;;;12.02;6.25;;;;;;;4.86;78.68;102436.38;4949056;28;20039;-90
2022/12/04 06:37:02;;;;;;;11.18;6.00;;;;;;;4.55;78.83;102394.50;4930748;28;20062;-91
2022/12/04 06:39:28;;;;;;;10.77;6.40;;;;;;;4.79;78.46;102414.53;4963653;28;20129;-89
2022/12/04 06:41:56;;;;;;;9.70;5.57;;;;;;;4.81;77.92;102395.78;4960684;28;20106;-90
2022/12/04 06:44:30;;;;;;;26.23;13.20;;;;;;;4.98;78.41;102442.88;4918235;28;20130;-90
2022/12/04 06:46:59;;;;;;;14.90;8.05;;;;;;;4.75;78.18;102397.00;4965817;28;20059;-91
2022/12/04 06:49:25;;;;;;;14.57;7.47;;;;;;;4.79;77.95;102398.53;4963943;28;20034;-91
2022/12/04 06:51:51;;;;;;;13.38;6.72;;;;;;;4.85;78.13;102408.03;4959219;28;20073;-91
2022/12/04 06:54:17;;;;;;;;;;;;;;;5.19;78.21;102439.06;4955324;28;20558;-91
2022/12/04 06:56:42;;;;;;;9.43;5.25;;;;;;;5.13;78.39;102426.06;4976504;28;19914;-90
2022/12/04 06:59:12;;;;;;;11.40;4.78;;;;;;;5.10;77.74;102423.56;4983670;28;20383;-91
2022/12/04 07:01:39;;;;;;;16.10;8.48;;;;;;;5.10;77.93;102418.22;4976137;28;20502;-92
2022/12/04 07:04:07;;;;;;;9.75;5.22;;;;;;;5.02;77.77;102409.78;4959459;28;20042;-91
2022/12/04 07:06:39;;;;;;;8.02;4.63;;;;;;;4.97;78.36;102419.84;4959262;28;20045;-92
2022/12/04 07:09:15;;;;;;;8.00;4.28;;;;;;;5.03;78.17;102419.50;4964693;28;20061;-91
2022/12/04 07:11:43;;;;;;;7.38;4.35;;;;;;;5.15;77.68;102434.84;4960033;28;20034;-91
2022/12/04 07:14:10;;;;;;;7.72;4.35;;;;;;;5.15;77.35;102418.84;4935312;28;20050;-91
2022/12/04 07:16:35;;;;;;;;;;;;;;;5.18;77.86;102432.00;4960884;28;20038;-91
2022/12/04 07:19:01;;;;;;;6.65;3.72;;;;;;;4.87;78.30;102398.16;4984001;28;19972;-87
2022/12/04 07:21:28;;;;;;;8.10;4.40;;;;;;;4.86;78.56;102394.59;4980840;28;20070;-90
2022/12/04 07:23:55;;;;;;;9.75;4.90;;;;;;;4.85;78.53;102397.38;4940705;28;20042;-90
2022/12/04 07:26:36;;;;;;;7.43;4.20;;;;;;;5.14;78.79;102430.44;4942426;28;20130;-95
2022/12/04 07:29:06;;;;;;;7.53;4.38;;;;;;;5.31;78.30;102442.00;4975522;28;20031;-92
2022/12/04 07:31:32;;;;;;;7.57;4.70;;;;;;;5.21;78.07;102420.31;4961669;28;20133;-88
2022/12/04 07:34:02;;;;;;;8.27;4.60;;;;;;;5.10;78.41;102438.69;4976788;28;20487;-90
2022/12/04 07:36:27;;;;;;;8.23;4.50;;;;;;;4.96;78.68;102400.28;4962007;28;20028;-93
2022/12/04 07:39:06;;;;;;;9.10;4.30;;;;;;;5.12;78.20;102403.00;4976210;28;20055;-94
2022/12/04 07:41:32;;;;;;;7.68;4.25;;;;;;;5.27;78.26;102430.66;4959351;28;20089;-90
2022/12/04 07:44:36;;;;;;;9.00;5.13;;;;;;;5.12;78.90;102408.34;4972030;28;20058;-94
2022/12/04 07:47:06;;;;;;;15.65;8.50;;;;;;;5.36;77.83;102414.16;4979525;28;20113;-88
2022/12/04 07:49:40;;;;;;;8.20;5.00;;;;;;;5.49;76.97;102441.88;4973430;28;20046;-87
2022/12/04 07:52:29;;;;;;;8.35;4.85;;;;;;;5.78;76.23;102457.19;4946472;28;20046;-88
2022/12/04 07:55:09;;;;;;;9.15;5.10;;;;;;;5.85;76.09;102437.22;4972774;28;20054;-92
2022/12/04 07:57:54;;;;;;;9.85;4.78;;;;;;;5.89;76.32;102438.78;4987563;28;20039;-92
2022/12/04 08:00:41;;;;;;;8.82;5.13;;;;;;;5.78;75.97;102404.69;4984300;28;20043;-91
2022/12/04 08:03:12;;;;;;;6.40;4.25;;;;;;;5.93;75.04;102418.97;4962142;28;20066;-90
2022/12/04 08:06:02;;;;;;;8.02;4.82;;;;;;;5.88;75.08;102415.72;4969933;28;20135;-89
2022/12/04 08:08:29;;;;;;;11.63;6.03;;;;;;;5.67;76.27;102423.13;4965343;28;20049;-85
2022/12/04 08:10:55;;;;;;;7.45;4.57;;;;;;;5.75;76.01;102444.03;4934172;28;20042;-87
2022/12/04 08:13:20;;;;;;;8.57;5.25;;;;;;;5.76;76.38;102427.06;4945793;28;20042;-85
2022/12/04 08:15:46;;;;;;;9.05;5.47;;;;;;;5.68;76.47;102425.69;4977124;28;20138;-88
2022/12/04 08:18:13;;;;;;;8.02;5.25;;;;;;;5.66;76.39;102421.38;4936988;28;20047;-87
2022/12/04 08:20:38;;;;;;;9.70;5.00;;;;;;;5.80;76.97;102425.94;4953859;28;20085;-87
2022/12/04 08:23:04;;;;;;;8.82;5.40;;;;;;;6.09;76.68;102435.88;4956772;28;20455;-87
2022/12/04 08:25:30;;;;;;;13.85;5.78;;;;;;;5.93;76.87;102410.97;4964142;28;20093;-86
2022/12/04 08:27:57;;;;;;;8.07;4.85;;;;;;;5.49;77.98;102417.00;4979142;28;20587;-87
2022/12/04 08:30:22;;;;;;;8.35;4.65;;;;;;;5.58;77.53;102402.28;4925934;28;20038;-87
2022/12/04 08:32:51;;;;;;;8.35;4.88;;;;;;;5.89;76.60;102420.09;4979439;28;20239;-88
2022/12/04 08:35:17;;;;;;;8.70;5.20;;;;;;;5.98;76.40;102421.41;4969179;28;20050;-87
2022/12/04 08:37:43;;;;;;;8.88;4.80;;;;;;;6.02;76.94;102437.19;4975116;28;20042;-86
2022/12/04 08:40:11;;;;;;;9.50;5.03;;;;;;;5.82;77.19;102394.69;4967560;28;20558;-88
2022/12/04 08:42:37;;;;;;;11.23;5.75;;;;;;;5.99;76.93;102407.09;4961825;28;20050;-87
2022/12/04 08:45:03;;;;;;;7.57;4.95;;;;;;;6.20;77.76;102437.03;4975406;28;20142;-86
2022/12/04 08:47:31;;;;;;;9.75;5.47;;;;;;;6.10;77.59;102416.22;4939800;28;20114;-87
2022/12/04 08:49:57;;;;;;;7.38;4.45;;;;;;;6.17;77.34;102410.53;4974784;28;20427;-87
2022/12/04 08:52:22;;;;;;;7.93;4.90;;;;;;;6.17;76.92;102378.47;4961318;28;21195;-88
2022/12/04 08:54:51;;;;;;;6.50;4.18;;;;;;;6.28;77.92;102408.94;4960092;28;20046;-86
2022/12/04 08:57:20;;;;;;;6.72;3.60;;;;;;;5.96;78.23;102364.56;4942521;28;20105;-87
2022/12/04 08:59:46;;;;;;;7.78;4.25;;;;;;;5.97;78.70;102366.28;4978164;28;20117;-88
2022/12/04 09:02:12;;;;;;;6.22;4.00;;;;;;;6.06;78.75;102371.97;4944261;28;20518;-85
2022/12/04 09:04:41;;;;;;;7.05;4.40;;;;;;;6.23;78.86;102394.16;4972893;28;20031;-85
2022/12/04 09:07:07;;;;;;;7.25;4.07;;;;;;;6.26;78.55;102373.44;4978534;28;20454;-87
2022/12/04 09:09:36;;;;;;;7.93;4.85;;;;;;;6.65;77.86;102389.84;4923983;28;20247;-87
2022/12/04 09:12:01;;;;;;;6.82;4.15;;;;;;;6.51;77.94;102380.00;4973814;28;20134;-87
2022/12/04 09:14:28;;;;;;;6.90;4.30;;;;;;;6.47;77.65;102370.44;4938410;28;20078;-85
2022/12/04 09:16:55;;;;;;;6.20;3.88;;;;;;;6.75;77.38;102383.00;4961104;28;20046;-86
2022/12/04 09:19:21;;;;;;;6.07;3.58;;;;;;;6.64;76.84;102334.69;4967262;28;20538;-87
2022/12/04 09:21:49;;;;;;;6.40;3.60;;;;;;;6.73;76.30;102360.84;4982123;28;20412;-84
2022/12/04 09:24:15;;;;;;;7.35;3.67;;;;;;;6.69;76.75;102361.97;4991838;28;20053;-86
2022/12/04 09:26:42;;;;;;;8.27;3.83;;;;;;;6.75;76.86;102358.94;4960148;28;20050;-86
2022/12/04 09:29:09;;;;;;;5.93;4.03;;;;;;;7.04;76.32;102372.31;4952337;28;20035;-87
2022/12/04 09:31:35;;;;;;;7.68;4.25;;;;;;;6.76;76.04;102345.47;4955626;28;20047;-84
2022/12/04 09:34:01;;;;;;;6.47;4.00;;;;;;;6.78;76.17;102340.03;4979805;28;20158;-87
2022/12/04 09:36:28;;;;;;;9.30;3.97;;;;;;;6.71;75.99;102317.31;4952309;28;20039;-87
2022/12/04 09:38:55;;;;;;;8.02;4.07;;;;;;;6.91;76.39;102348.16;4985278;28;20058;-85
2022/12/04 09:41:50;;;;;;;7.55;4.10;;;;;;;6.86;76.81;102335.06;4978910;28;20038;-86
2022/12/04 09:44:20;;;;;;;7.05;3.70;;;;;;;6.91;75.87;102326.78;4945071;28;20105;-84
2022/12/04 09:47:00;;;;;;;9.27;3.92;;;;;;;6.89;75.74;102317.97;4957191;28;20047;-88
2022/12/04 09:49:34;;;;;;;6.60;3.50;;;;;;;6.98;75.94;102328.09;4955579;28;20066;-88
2022/12/04 09:52:00;;;;;;;7.72;3.65;;;;;;;7.05;75.54;102333.94;4954269;28;20050;-87
2022/12/04 09:54:29;;;;;;;7.70;4.40;;;;;;;6.98;75.60;102317.41;4938134;28;20061;-85
2022/12/04 09:56:59;;;;;;;6.93;4.30;;;;;;;7.17;75.85;102339.34;4937937;28;20046;-86
2022/12/04 09:59:26;;;;;;;6.03;3.80;;;;;;;6.94;75.34;102303.34;4937781;28;20054;-87
2022/12/04 10:02:15;;;;;;;5.85;3.50;;;;;;;7.17;75.22;102339.34;4937587;28;20117;-87
2022/12/04 10:04:43;;;;;;;6.55;3.78;;;;;;;7.10;74.83;102321.13;4989245;28;20075;-86
2022/12/04 10:07:34;;;;;;;6.35;3.92;;;;;;;7.22;74.42;102312.28;4942213;28;20062;-85
2022/12/04 10:10:18;;;;;;;6.22;3.15;;;;;;;7.27;74.45;102328.91;4942393;28;20046;-87
2022/12/04 10:13:21;;;;;;;5.65;3.42;;;;;;;7.19;74.34;102317.84;4951287;28;20185;-84
2022/12/04 10:15:54;;;;;;;5.65;3.20;;;;;;;7.21;74.15;102307.91;4984661;28;20105;-87
2022/12/04 10:19:08;;;;;;;6.72;3.20;;;;;;;7.23;73.93;102316.66;4941110;28;20134;-86
2022/12/04 10:22:24;;;;;;;6.90;3.40;;;;;;;7.27;74.35;102326.22;4956000;28;20105;-85
2022/12/04 10:24:51;;;;;;;6.45;3.63;;;;;;;7.26;73.85;102312.94;4914321;29;20051;-85
2022/12/04 10:27:24;;;;;;;5.18;3.53;;;;;;;7.39;73.13;102301.34;4960397;28;20145;-85
2022/12/04 10:29:54;;;;;;;12.48;4.30;;;;;;;7.48;73.12;102305.25;4945821;28;20490;-86
2022/12/04 10:32:29;;;;;;;7.22;3.70;;;;;;;7.36;72.29;102264.09;4937810;28;20134;-86
2022/12/04 10:35:23;;;;;;;8.35;3.65;;;;;;;7.46;72.87;102307.16;4943253;28;20046;-86
2022/12/04 10:37:52;;;;;;;8.25;3.30;;;;;;;7.32;73.11;102300.03;4956446;28;20152;-87
2022/12/04 10:40:26;;;;;;;7.63;3.70;;;;;;;7.31;73.15;102298.31;4945160;28;20478;-86
2022/12/04 10:43:05;;;;;;;6.55;3.95;;;;;;;7.37;73.08;102276.53;4947597;28;20108;-85
2022/12/04 10:45:31;;;;;;;11.02;4.30;;;;;;;7.22;73.23;102253.44;4948166;28;20130;-87
2022/12/04 10:47:58;;;;;;;6.45;3.60;;;;;;;7.50;72.95;102289.94;4962857;28;20144;-90
2022/12/04 10:50:29;;;;;;;8.15;3.70;;;;;;;7.53;72.50;102283.53;4943737;28;20066;-86
2022/12/04 10:52:58;;;;;;;12.15;4.22;;;;;;;7.57;72.67;102274.34;4958903;28;20043;-86
2022/12/04 10:55:31;;;;;;;8.00;4.10;;;;;;;7.50;72.36;102254.31;4961981;28;20420;-86
2022/12/04 10:57:59;;;;;;;11.05;4.38;;;;;;;7.65;72.55;102282.72;4976457;28;20035;-88
2022/12/04 11:00:35;;;;;;;8.23;4.18;;;;;;;7.54;72.63;102290.63;4962097;28;20430;-86
2022/12/04 11:03:08;;;;;;;7.15;3.92;;;;;;;7.55;72.78;102295.84;4961278;28;20050;-88
2022/12/04 11:05:54;;;;;;;6.55;3.92;;;;;;;7.27;72.53;102250.47;4926079;28;20118;-86
2022/12/04 11:08:25;;;;;;;8.18;4.15;;;;;;;7.47;72.47;102270.53;4947549;28;20050;-86
2022/12/04 11:11:12;;;;;;;6.18;4.00;;;;;;;7.37;73.13;102286.34;4965913;28;20057;-85
2022/12/04 11:13:38;;;;;;;8.27;4.47;;;;;;;7.05;73.31;102232.31;4965841;28;20047;-86
2022/12/04 11:16:05;;;;;;;;;;;;;;;7.42;73.09;102278.03;4965420;28;20077;-85
2022/12/04 11:18:34;;;;;;;6.10;3.70;;;;;;;7.39;72.92;102274.59;4939994;28;19917;-86
2022/12/04 11:21:25;;;;;;;7.85;4.13;;;;;;;7.32;72.92;102265.25;4954918;28;20050;-87
2022/12/04 11:23:51;;;;;;;7.53;3.90;;;;;;;7.09;73.42;102255.19;4983829;28;20491;-85
2022/12/04 11:26:32;;;;;;;8.88;4.03;;;;;;;7.02;73.63;102240.50;4947328;28;20051;-86
2022/12/04 11:29:00;;;;;;;8.65;3.92;;;;;;;7.10;73.99;102254.25;4952636;28;20043;-85
2022/12/04 11:31:26;;;;;;;7.00;3.95;;;;;;;7.02;74.18;102241.34;4963371;28;20181;-84
2022/12/04 11:33:58;;;;;;;8.90;4.10;;;;;;;7.25;73.49;102266.59;4970372;28;20054;-87
2022/12/04 11:36:28;;;;;;;8.18;4.00;;;;;;;7.18;73.51;102251.91;4957998;28;20039;-86
2022/12/04 11:39:22;;;;;;;8.75;4.22;;;;;;;7.27;73.50;102264.69;4965864;28;20055;-85
2022/12/04 11:42:05;;;;;;;12.68;7.75;;;;;;;7.14;73.72;102247.72;4963453;28;20047;-88
2022/12/04 11:44:33;;;;;;;8.38;4.93;;;;;;;7.23;73.96;102262.31;4952553;28;20352;-87
2022/12/04 11:47:01;;;;;;;7.82;4.60;;;;;;;7.15;73.84;102236.06;4977346;28;20038;-86
2022/12/04 11:49:28;;;;;;;9.27;4.70;;;;;;;7.06;73.90;102234.00;4960612;28;20504;-85
2022/12/04 11:52:06;;;;;;;10.43;5.95;;;;;;;7.42;73.54;102267.31;4960850;28;20039;-86
2022/12/04 11:55:01;;;;;;;11.27;5.22;;;;;;;7.06;73.80;102224.16;4953200;28;20519;-87
2022/12/04 11:57:37;;;;;;;8.75;4.38;;;;;;;7.14;73.93;102229.00;4927297;28;20059;-90
2022/12/04 12:00:15;;;;;;;7.82;4.50;;;;;;;7.23;73.82;102235.56;4946004;28;20045;-86
2022/12/04 12:03:13;;;;;;;9.40;4.20;;;;;;;7.17;73.68;102236.84;4943674;28;20038;-86
2022/12/04 12:06:16;;;;;;;12.52;5.47;;;;;;;7.39;74.00;102263.88;4963319;28;20055;-85
2022/12/04 12:09:22;;;;;;;13.68;5.57;;;;;;;7.45;73.99;102273.34;4966120;28;20098;-90
2022/12/04 12:12:11;;;;;;;9.82;5.07;;;;;;;7.42;74.13;102267.31;4976460;28;20526;-87
2022/12/04 12:15:06;;;;;;;9.98;5.53;;;;;;;7.03;74.27;102210.13;4952917;28;20043;-87
2022/12/04 12:17:45;;;;;;;12.10;6.13;;;;;;;7.44;74.24;102254.69;4960106;28;20050;-88
2022/12/04 12:20:23;;;;;;;10.80;5.93;;;;;;;7.11;73.96;102205.97;4933904;28;20046;-86